createdAt,value
2022-08-20T00:00:03.714Z,0.000000
2022-08-20T00:01:02.349Z,0.000000
2022-08-20T00:02:00.674Z,0.000000
2022-08-20T00:03:00.411Z,0.000000
2022-08-20T00:04:01.637Z,0.000000
2022-08-20T00:05:03.348Z,0.000000
2022-08-20T00:06:00.524Z,0.000000
2022-08-20T00:07:00.415Z,0.000000
2022-08-20T00:08:00.518Z,0.000000
2022-08-20T00:09:00.445Z,0.000000
2022-08-20T00:10:03.700Z,0.000000
2022-08-20T00:11:00.454Z,0.000000
2022-08-20T00:12:00.712Z,0.000000
2022-08-20T00:13:00.456Z,0.000000
2022-08-20T00:14:02.210Z,0.000000
2022-08-20T00:15:04.684Z,5.800000
2022-08-20T00:16:00.562Z,5.800000
2022-08-20T00:17:00.494Z,5.700000
2022-08-20T00:18:00.600Z,5.700000
2022-08-20T00:19:00.505Z,0.000000
2022-08-20T00:20:03.771Z,0.000000
2022-08-20T00:21:00.523Z,0.000000
2022-08-20T00:22:00.595Z,0.000000
2022-08-20T00:23:00.522Z,0.000000
2022-08-20T00:24:00.615Z,0.000000
2022-08-20T00:25:03.572Z,0.000000
2022-08-20T00:26:00.653Z,0.000000
2022-08-20T00:27:00.565Z,0.000000
2022-08-20T00:28:00.630Z,0.000000
2022-08-20T00:29:00.555Z,0.000000
2022-08-20T00:30:03.808Z,0.000000
2022-08-20T00:31:00.593Z,0.000000
2022-08-20T00:32:00.698Z,0.000000
2022-08-20T00:33:00.608Z,0.000000
2022-08-20T00:34:00.660Z,0.000000
2022-08-20T00:35:03.875Z,0.000000
2022-08-20T00:36:02.163Z,0.000000
2022-08-20T00:37:00.612Z,0.000000
2022-08-20T00:38:00.992Z,0.000000
2022-08-20T00:39:00.640Z,0.000000
2022-08-20T00:40:04.032Z,0.000000
2022-08-20T00:41:00.632Z,0.000000
2022-08-20T00:42:00.730Z,0.000000
2022-08-20T00:43:00.661Z,0.000000
2022-08-20T00:44:01.684Z,0.000000
2022-08-20T00:45:04.343Z,0.000000
2022-08-20T00:46:00.780Z,0.000000
2022-08-20T00:47:00.689Z,0.000000
2022-08-20T00:48:00.757Z,0.000000
2022-08-20T00:49:01.810Z,0.000000
2022-08-20T00:50:03.994Z,0.000000
2022-08-20T00:51:00.728Z,0.000000
2022-08-20T00:52:00.786Z,0.000000
2022-08-20T00:53:00.729Z,0.000000
2022-08-20T00:54:00.825Z,0.000000
2022-08-20T00:55:03.869Z,0.000000
2022-08-20T00:56:00.849Z,0.000000
2022-08-20T00:57:00.786Z,0.000000
2022-08-20T00:58:01.947Z,0.000000
2022-08-20T00:59:00.780Z,0.000000
2022-08-20T01:00:04.020Z,0.000000
2022-08-20T01:01:00.839Z,0.000000
2022-08-20T01:02:00.955Z,0.000000
2022-08-20T01:03:00.829Z,0.000000
2022-08-20T01:04:02.199Z,0.000000
2022-08-20T01:05:03.653Z,0.000000
2022-08-20T01:06:00.929Z,0.000000
2022-08-20T01:07:00.838Z,0.000000
2022-08-20T01:08:00.974Z,0.000000
2022-08-20T01:09:00.873Z,0.000000
2022-08-20T01:10:04.191Z,0.000000
2022-08-20T01:11:00.880Z,0.000000
2022-08-20T01:12:00.970Z,0.000000
2022-08-20T01:13:00.887Z,0.000000
2022-08-20T01:14:01.000Z,0.000000
2022-08-20T01:15:03.986Z,0.000000
2022-08-20T01:16:00.983Z,0.000000
2022-08-20T01:17:00.926Z,0.000000
2022-08-20T01:18:02.169Z,0.000000
2022-08-20T01:19:00.911Z,0.000000
2022-08-20T01:20:04.536Z,0.000000
2022-08-20T01:21:00.938Z,0.000000
2022-08-20T01:22:00.992Z,0.000000
2022-08-20T01:23:00.948Z,0.000000
2022-08-20T01:24:01.012Z,0.000000
2022-08-20T01:25:03.986Z,0.000000
2022-08-20T01:26:01.064Z,0.000000
2022-08-20T01:27:01.026Z,0.000000
2022-08-20T01:28:01.239Z,0.000000
2022-08-20T01:29:00.964Z,0.000000
2022-08-20T01:30:06.068Z,0.000000
2022-08-20T01:31:00.984Z,0.000000
2022-08-20T01:32:02.219Z,0.000000
2022-08-20T01:33:01.033Z,0.000000
2022-08-20T01:34:01.099Z,0.000000
2022-08-20T01:35:03.887Z,0.000000
2022-08-20T01:36:01.114Z,0.000000
2022-08-20T01:37:01.054Z,0.000000
2022-08-20T01:38:01.134Z,0.000000
2022-08-20T01:39:01.055Z,0.000000
2022-08-20T01:40:05.113Z,0.000000
2022-08-20T01:41:01.078Z,5.400000
2022-08-20T01:42:01.192Z,5.400000
2022-08-20T01:43:01.085Z,0.000000
2022-08-20T01:44:01.180Z,0.000000
2022-08-20T01:45:13.533Z,0.000000
2022-08-20T01:46:02.291Z,0.000000
2022-08-20T01:47:01.114Z,0.000000
2022-08-20T01:48:01.249Z,0.000000
2022-08-20T01:49:01.144Z,0.000000
2022-08-20T01:50:04.755Z,0.000000
2022-08-20T01:51:01.155Z,0.000000
2022-08-20T01:52:01.224Z,0.000000
2022-08-20T01:53:01.163Z,0.000000
2022-08-20T01:54:00.272Z,0.000000
2022-08-20T01:55:03.378Z,0.000000
2022-08-20T01:56:00.244Z,0.000000
2022-08-20T01:57:00.190Z,0.000000
2022-08-20T01:58:00.270Z,6.600000
2022-08-20T01:59:00.195Z,6.600000
2022-08-20T02:00:03.561Z,6.600000
2022-08-20T02:01:00.242Z,0.000000
2022-08-20T02:02:00.423Z,0.000000
2022-08-20T02:03:00.250Z,0.000000
2022-08-20T02:04:00.370Z,0.000000
2022-08-20T02:05:03.258Z,0.000000
2022-08-20T02:06:00.342Z,0.000000
2022-08-20T02:07:00.279Z,0.000000
2022-08-20T02:08:00.352Z,0.000000
2022-08-20T02:09:00.296Z,0.000000
2022-08-20T02:10:03.600Z,0.000000
2022-08-20T02:11:00.283Z,0.000000
2022-08-20T02:12:00.370Z,0.000000
2022-08-20T02:13:00.312Z,0.000000
2022-08-20T02:14:00.389Z,0.000000
2022-08-20T02:15:03.293Z,0.000000
2022-08-20T02:16:00.386Z,0.000000
2022-08-20T02:17:00.332Z,0.000000
2022-08-20T02:18:00.424Z,0.000000
2022-08-20T02:19:00.331Z,0.000000
2022-08-20T02:20:08.881Z,0.000000
2022-08-20T02:21:00.362Z,0.000000
2022-08-20T02:22:00.427Z,0.000000
2022-08-20T02:23:00.367Z,0.000000
2022-08-20T02:24:00.436Z,0.000000
2022-08-20T02:25:03.354Z,0.000000
2022-08-20T02:26:00.478Z,0.000000
2022-08-20T02:27:00.405Z,0.000000
2022-08-20T02:28:00.451Z,0.000000
2022-08-20T02:29:01.202Z,0.000000
2022-08-20T02:30:03.598Z,0.000000
2022-08-20T02:31:00.417Z,0.000000
2022-08-20T02:32:24.828Z,0.000000
2022-08-20T02:33:00.442Z,0.000000
2022-08-20T02:34:21.961Z,5.100000
2022-08-20T02:35:04.159Z,5.100000
2022-08-20T02:36:02.181Z,0.000000
2022-08-20T02:37:00.471Z,0.000000
2022-08-20T02:38:00.540Z,0.000000
2022-08-20T02:39:00.482Z,0.000000
2022-08-20T02:40:03.636Z,0.000000
2022-08-20T02:41:00.500Z,0.000000
2022-08-20T02:42:00.624Z,0.000000
2022-08-20T02:43:00.514Z,0.000000
2022-08-20T02:44:00.747Z,0.000000
2022-08-20T02:45:03.787Z,0.000000
2022-08-20T02:46:00.631Z,0.000000
2022-08-20T02:47:00.546Z,0.000000
2022-08-20T02:48:00.600Z,0.000000
2022-08-20T02:49:00.535Z,0.000000
2022-08-20T02:50:03.815Z,0.000000
2022-08-20T02:51:00.572Z,0.000000
2022-08-20T02:52:00.680Z,0.000000
2022-08-20T02:53:00.566Z,0.000000
2022-08-20T02:54:00.658Z,0.000000
2022-08-20T02:55:03.570Z,0.000000
2022-08-20T02:56:00.683Z,0.000000
2022-08-20T02:57:00.607Z,0.000000
2022-08-20T02:58:00.699Z,0.000000
2022-08-20T02:59:00.611Z,0.000000
2022-08-20T03:00:04.049Z,0.000000
2022-08-20T03:01:00.666Z,0.000000
2022-08-20T03:02:01.196Z,0.000000
2022-08-20T03:03:00.669Z,0.000000
2022-08-20T03:04:02.205Z,0.000000
2022-08-20T03:05:03.717Z,0.000000
2022-08-20T03:06:00.752Z,0.000000
2022-08-20T03:07:00.693Z,0.000000
2022-08-20T03:08:00.891Z,0.000000
2022-08-20T03:09:00.710Z,0.000000
2022-08-20T03:10:04.243Z,0.000000
2022-08-20T03:11:00.730Z,0.000000
2022-08-20T03:12:00.796Z,0.000000
2022-08-20T03:13:00.732Z,0.000000
2022-08-20T03:14:00.840Z,0.000000
2022-08-20T03:15:03.763Z,0.000000
2022-08-20T03:16:00.848Z,0.000000
2022-08-20T03:17:00.752Z,0.000000
2022-08-20T03:18:03.360Z,0.000000
2022-08-20T03:19:00.773Z,0.000000
2022-08-20T03:20:04.191Z,0.000000
2022-08-20T03:21:00.822Z,0.000000
2022-08-20T03:22:00.909Z,0.000000
2022-08-20T03:23:00.800Z,0.000000
2022-08-20T03:24:00.941Z,0.000000
2022-08-20T03:25:03.814Z,0.000000
2022-08-20T03:26:00.916Z,0.000000
2022-08-20T03:27:00.832Z,0.000000
2022-08-20T03:28:01.153Z,0.000000
2022-08-20T03:29:00.839Z,0.000000
2022-08-20T03:30:04.644Z,0.000000
2022-08-20T03:31:00.869Z,0.000000
2022-08-20T03:32:04.889Z,0.000000
2022-08-20T03:33:00.898Z,0.000000
2022-08-20T03:34:00.964Z,0.000000
2022-08-20T03:35:03.753Z,0.000000
2022-08-20T03:36:01.040Z,0.000000
2022-08-20T03:37:00.908Z,0.000000
2022-08-20T03:38:01.012Z,0.000000
2022-08-20T03:39:00.934Z,0.000000
2022-08-20T03:40:05.526Z,0.000000
2022-08-20T03:41:00.951Z,0.000000
2022-08-20T03:42:01.034Z,0.000000
2022-08-20T03:43:00.976Z,0.000000
2022-08-20T03:44:01.044Z,0.000000
2022-08-20T03:45:03.998Z,0.000000
2022-08-20T03:46:02.235Z,0.000000
2022-08-20T03:47:00.989Z,0.000000
2022-08-20T03:48:01.061Z,0.000000
2022-08-20T03:49:01.034Z,0.000000
2022-08-20T03:50:04.256Z,0.000000
2022-08-20T03:51:01.023Z,0.000000
2022-08-20T03:52:01.157Z,0.000000
2022-08-20T03:53:01.092Z,0.000000
2022-08-20T03:54:01.113Z,0.000000
2022-08-20T03:55:03.990Z,0.000000
2022-08-20T03:56:02.480Z,0.000000
2022-08-20T03:57:01.056Z,0.000000
2022-08-20T03:58:01.132Z,0.000000
2022-08-20T03:59:01.051Z,0.000000
2022-08-20T04:00:05.624Z,0.000000
2022-08-20T04:01:01.253Z,0.000000
2022-08-20T04:02:01.299Z,0.000000
2022-08-20T04:03:01.115Z,0.000000
2022-08-20T04:04:01.167Z,0.000000
2022-08-20T04:05:04.065Z,0.000000
2022-08-20T04:06:01.224Z,0.000000
2022-08-20T04:07:01.125Z,0.000000
2022-08-20T04:08:02.964Z,0.000000
2022-08-20T04:09:01.137Z,0.000000
2022-08-20T04:10:05.923Z,0.000000
2022-08-20T04:11:00.159Z,0.000000
2022-08-20T04:12:00.333Z,4.000000
2022-08-20T04:13:00.164Z,4.000000
2022-08-20T04:14:00.302Z,4.000000
2022-08-20T04:15:03.330Z,0.000000
2022-08-20T04:16:00.274Z,0.000000
2022-08-20T04:17:00.188Z,0.000000
2022-08-20T04:18:00.307Z,4.200000
2022-08-20T04:19:02.364Z,4.200000
2022-08-20T04:20:03.475Z,4.000000
2022-08-20T04:21:00.233Z,4.000000
2022-08-20T04:22:00.299Z,0.000000
2022-08-20T04:23:00.226Z,0.000000
2022-08-20T04:24:00.343Z,0.000000
2022-08-20T04:25:04.040Z,0.000000
2022-08-20T04:26:00.366Z,0.000000
2022-08-20T04:27:00.285Z,0.000000
2022-08-20T04:28:00.382Z,0.000000
2022-08-20T04:29:00.283Z,0.000000
2022-08-20T04:30:03.611Z,0.000000
2022-08-20T04:31:00.296Z,0.000000
2022-08-20T04:32:00.396Z,0.000000
2022-08-20T04:33:00.322Z,0.000000
2022-08-20T04:34:00.405Z,0.000000
2022-08-20T04:35:03.624Z,0.000000
2022-08-20T04:36:00.395Z,0.000000
2022-08-20T04:37:00.321Z,0.000000
2022-08-20T04:38:00.417Z,0.000000
2022-08-20T04:39:00.360Z,0.000000
2022-08-20T04:40:04.898Z,0.000000
2022-08-20T04:41:00.352Z,0.000000
2022-08-20T04:42:00.505Z,0.000000
2022-08-20T04:43:00.365Z,0.000000
2022-08-20T04:44:00.483Z,0.000000
2022-08-20T04:45:04.686Z,0.000000
2022-08-20T04:46:00.466Z,0.000000
2022-08-20T04:47:00.391Z,0.000000
2022-08-20T04:48:00.493Z,0.000000
2022-08-20T04:49:00.397Z,0.000000
2022-08-20T04:50:04.035Z,0.000000
2022-08-20T04:51:00.424Z,0.000000
2022-08-20T04:52:00.577Z,0.000000
2022-08-20T04:53:00.419Z,0.000000
2022-08-20T04:54:00.523Z,0.000000
2022-08-20T04:55:03.349Z,0.000000
2022-08-20T04:56:00.559Z,0.000000
2022-08-20T04:57:00.472Z,0.000000
2022-08-20T04:58:00.584Z,0.000000
2022-08-20T04:59:00.475Z,0.000000
2022-08-20T05:00:04.052Z,0.000000
2022-08-20T05:01:01.326Z,0.000000
2022-08-20T05:02:00.603Z,0.000000
2022-08-20T05:03:00.506Z,0.000000
2022-08-20T05:04:00.569Z,0.000000
2022-08-20T05:05:03.405Z,0.000000
2022-08-20T05:06:00.641Z,0.000000
2022-08-20T05:07:00.536Z,0.000000
2022-08-20T05:08:00.660Z,0.000000
2022-08-20T05:09:00.563Z,0.000000
2022-08-20T05:10:03.934Z,0.000000
2022-08-20T05:11:24.973Z,0.000000
2022-08-20T05:12:00.645Z,0.000000
2022-08-20T05:13:00.573Z,0.000000
2022-08-20T05:14:00.823Z,0.000000
2022-08-20T05:15:03.556Z,0.000000
2022-08-20T05:16:00.712Z,0.000000
2022-08-20T05:17:00.597Z,0.000000
2022-08-20T05:18:00.898Z,0.000000
2022-08-20T05:19:00.623Z,0.000000
2022-08-20T05:20:04.703Z,0.000000
2022-08-20T05:21:00.647Z,0.000000
2022-08-20T05:22:00.709Z,0.000000
2022-08-20T05:23:00.665Z,0.000000
2022-08-20T05:24:00.732Z,0.000000
2022-08-20T05:25:03.664Z,0.000000
2022-08-20T05:26:00.798Z,0.000000
2022-08-20T05:27:00.668Z,0.000000
2022-08-20T05:28:00.759Z,0.000000
2022-08-20T05:29:00.684Z,0.000000
2022-08-20T05:30:04.757Z,0.000000
2022-08-20T05:31:00.703Z,0.000000
2022-08-20T05:32:00.804Z,0.000000
2022-08-20T05:33:00.723Z,0.000000
2022-08-20T05:34:00.822Z,0.000000
2022-08-20T05:35:03.716Z,0.000000
2022-08-20T05:36:00.809Z,0.000000
2022-08-20T05:37:00.745Z,0.000000
2022-08-20T05:38:01.024Z,0.000000
2022-08-20T05:39:00.773Z,0.000000
2022-08-20T05:40:04.646Z,0.000000
2022-08-20T05:41:00.765Z,0.000000
2022-08-20T05:42:00.858Z,0.000000
2022-08-20T05:43:00.775Z,0.000000
2022-08-20T05:44:00.904Z,0.000000
2022-08-20T05:45:03.817Z,0.000000
2022-08-20T05:46:00.865Z,0.000000
2022-08-20T05:47:00.791Z,0.000000
2022-08-20T05:48:01.389Z,0.000000
2022-08-20T05:49:00.807Z,0.000000
2022-08-20T05:50:04.156Z,0.000000
2022-08-20T05:51:00.853Z,0.000000
2022-08-20T05:52:00.929Z,0.000000
2022-08-20T05:53:00.852Z,0.000000
2022-08-20T05:54:00.946Z,0.000000
2022-08-20T05:55:03.694Z,0.000000
2022-08-20T05:56:00.986Z,0.000000
2022-08-20T05:57:00.895Z,0.000000
2022-08-20T05:58:00.956Z,0.000000
2022-08-20T05:59:00.894Z,0.000000
2022-08-20T06:00:04.158Z,0.000000
2022-08-20T06:01:01.012Z,0.000000
2022-08-20T06:02:01.099Z,0.000000
2022-08-20T06:03:00.937Z,0.000000
2022-08-20T06:04:01.037Z,0.000000
2022-08-20T06:05:03.824Z,0.000000
2022-08-20T06:06:01.034Z,0.000000
2022-08-20T06:07:00.964Z,0.000000
2022-08-20T06:08:07.275Z,0.000000
2022-08-20T06:09:00.977Z,0.000000
2022-08-20T06:10:05.529Z,5.100000
2022-08-20T06:11:00.984Z,5.100000
2022-08-20T06:12:01.088Z,5.100000
2022-08-20T06:13:00.985Z,5.100000
2022-08-20T06:14:01.071Z,5.400000
2022-08-20T06:15:05.667Z,5.400000
2022-08-20T06:16:01.089Z,5.400000
2022-08-20T06:17:01.033Z,0.000000
2022-08-20T06:18:01.370Z,0.000000
2022-08-20T06:19:02.768Z,4.000000
2022-08-20T06:20:04.493Z,4.000000
2022-08-20T06:21:01.058Z,4.000000
2022-08-20T06:22:01.107Z,0.000000
2022-08-20T06:23:01.060Z,0.000000
2022-08-20T06:24:01.894Z,0.000000
2022-08-20T06:25:04.312Z,0.000000
2022-08-20T06:26:01.170Z,0.000000
2022-08-20T06:27:01.095Z,0.000000
2022-08-20T06:28:01.141Z,0.000000
2022-08-20T06:29:01.102Z,0.000000
2022-08-20T06:30:05.314Z,0.000000
2022-08-20T06:31:01.128Z,0.000000
2022-08-20T06:32:01.204Z,0.000000
2022-08-20T06:33:01.146Z,0.000000
2022-08-20T06:34:01.198Z,0.000000
2022-08-20T06:35:04.282Z,0.000000
2022-08-20T06:36:01.265Z,0.000000
2022-08-20T06:37:00.152Z,0.000000
2022-08-20T06:38:00.285Z,0.000000
2022-08-20T06:39:00.177Z,4.600000
2022-08-20T06:40:03.426Z,4.600000
2022-08-20T06:41:00.180Z,4.600000
2022-08-20T06:42:00.272Z,4.600000
2022-08-20T06:43:00.208Z,4.600000
2022-08-20T06:44:00.292Z,4.600000
2022-08-20T06:45:03.278Z,4.200000
2022-08-20T06:46:00.313Z,4.200000
2022-08-20T06:47:00.223Z,9.300000
2022-08-20T06:48:00.308Z,9.300000
2022-08-20T06:49:00.237Z,9.300000
2022-08-20T06:50:04.916Z,9.300000
2022-08-20T06:51:00.250Z,9.300000
2022-08-20T06:52:00.358Z,7.700000
2022-08-20T06:53:00.261Z,7.700000
2022-08-20T06:54:00.374Z,7.700000
2022-08-20T06:55:03.351Z,7.700000
2022-08-20T06:56:00.384Z,7.700000
2022-08-20T06:57:00.290Z,11.000000
2022-08-20T06:58:00.372Z,11.000000
2022-08-20T06:59:00.286Z,11.000000
2022-08-20T07:00:05.168Z,11.000000
2022-08-20T07:01:04.909Z,11.000000
2022-08-20T07:02:00.446Z,11.000000
2022-08-20T07:03:00.336Z,11.000000
2022-08-20T07:04:00.387Z,9.400000
2022-08-20T07:05:03.325Z,9.400000
2022-08-20T07:06:00.421Z,9.400000
2022-08-20T07:07:00.327Z,10.500000
2022-08-20T07:08:00.462Z,10.500000
2022-08-20T07:09:00.349Z,10.500000
2022-08-20T07:10:04.220Z,10.500000
2022-08-20T07:11:00.366Z,10.500000
2022-08-20T07:12:00.483Z,6.700000
2022-08-20T07:13:00.375Z,6.700000
2022-08-20T07:14:00.540Z,8.100000
2022-08-20T07:15:03.429Z,8.100000
2022-08-20T07:16:00.471Z,8.100000
2022-08-20T07:17:00.400Z,8.100000
2022-08-20T07:18:01.634Z,8.100000
2022-08-20T07:19:00.414Z,8.100000
2022-08-20T07:20:03.697Z,8.100000
2022-08-20T07:21:00.439Z,8.100000
2022-08-20T07:22:00.515Z,6.600000
2022-08-20T07:23:00.452Z,6.600000
2022-08-20T07:24:00.728Z,6.600000
2022-08-20T07:25:03.525Z,5.800000
2022-08-20T07:26:00.606Z,5.800000
2022-08-20T07:27:00.477Z,5.800000
2022-08-20T07:28:00.547Z,5.400000
2022-08-20T07:29:00.488Z,5.400000
2022-08-20T07:30:03.926Z,4.000000
2022-08-20T07:31:00.496Z,4.000000
2022-08-20T07:32:00.619Z,4.000000
2022-08-20T07:33:00.525Z,0.000000
2022-08-20T07:34:00.611Z,0.000000
2022-08-20T07:35:03.590Z,0.000000
2022-08-20T07:36:00.627Z,0.000000
2022-08-20T07:37:00.545Z,0.000000
2022-08-20T07:38:00.661Z,4.400000
2022-08-20T07:39:00.574Z,4.400000
2022-08-20T07:40:04.092Z,0.000000
2022-08-20T07:41:00.571Z,0.000000
2022-08-20T07:42:00.643Z,0.000000
2022-08-20T07:43:00.586Z,7.400000
2022-08-20T07:44:00.677Z,7.400000
2022-08-20T07:45:03.504Z,7.400000
2022-08-20T07:46:00.665Z,7.400000
2022-08-20T07:47:00.614Z,7.400000
2022-08-20T07:48:00.706Z,7.400000
2022-08-20T07:49:00.634Z,7.400000
2022-08-20T07:50:04.230Z,7.400000
2022-08-20T07:51:00.652Z,7.400000
2022-08-20T07:52:00.785Z,7.400000
2022-08-20T07:53:00.650Z,8.200000
2022-08-20T07:54:00.733Z,8.200000
2022-08-20T07:55:03.628Z,8.200000
2022-08-20T07:56:00.757Z,8.200000
2022-08-20T07:57:00.689Z,7.300000
2022-08-20T07:58:00.732Z,7.300000
2022-08-20T07:59:00.683Z,7.300000
2022-08-20T08:00:04.366Z,8.100000
2022-08-20T08:01:00.845Z,8.100000
2022-08-20T08:02:00.823Z,8.100000
2022-08-20T08:03:00.723Z,8.100000
2022-08-20T08:04:00.792Z,8.100000
2022-08-20T08:05:07.462Z,0.000000
2022-08-20T08:06:00.832Z,0.000000
2022-08-20T08:07:00.763Z,5.600000
2022-08-20T08:08:02.846Z,5.600000
2022-08-20T08:09:00.791Z,5.600000
2022-08-20T08:10:04.132Z,5.600000
2022-08-20T08:11:00.779Z,5.600000
2022-08-20T08:12:00.897Z,5.600000
2022-08-20T08:13:00.787Z,6.500000
2022-08-20T08:14:00.897Z,6.500000
2022-08-20T08:15:03.918Z,6.500000
2022-08-20T08:16:00.879Z,5.700000
2022-08-20T08:17:00.821Z,5.700000
2022-08-20T08:18:00.913Z,5.000000
2022-08-20T08:19:00.844Z,5.000000
2022-08-20T08:20:13.361Z,5.000000
2022-08-20T08:21:00.854Z,5.000000
2022-08-20T08:22:00.957Z,5.000000
2022-08-20T08:23:00.845Z,8.000000
2022-08-20T08:24:00.964Z,8.000000
2022-08-20T08:25:04.269Z,8.100000
2022-08-20T08:26:00.990Z,8.100000
2022-08-20T08:27:00.890Z,8.100000
2022-08-20T08:28:00.973Z,8.100000
2022-08-20T08:29:00.905Z,8.100000
2022-08-20T08:30:04.390Z,6.900000
2022-08-20T08:31:00.909Z,6.900000
2022-08-20T08:32:01.045Z,6.900000
2022-08-20T08:33:00.937Z,6.900000
2022-08-20T08:34:00.987Z,6.900000
2022-08-20T08:35:04.051Z,6.900000
2022-08-20T08:36:01.037Z,5.100000
2022-08-20T08:37:00.958Z,5.100000
2022-08-20T08:38:01.077Z,6.500000
2022-08-20T08:39:00.978Z,6.500000
2022-08-20T08:40:04.484Z,6.500000
2022-08-20T08:41:00.980Z,6.500000
2022-08-20T08:42:01.098Z,6.500000
2022-08-20T08:43:00.999Z,0.000000
2022-08-20T08:44:01.124Z,0.000000
2022-08-20T08:45:13.634Z,0.000000
2022-08-20T08:46:01.083Z,0.000000
2022-08-20T08:47:01.011Z,0.000000
2022-08-20T08:48:00.589Z,0.000000
2022-08-20T08:49:00.597Z,5.100000
2022-08-20T08:50:01.025Z,5.100000
2022-08-20T08:51:01.028Z,5.100000
2022-08-20T08:52:01.108Z,5.100000
2022-08-20T08:53:01.031Z,4.000000
2022-08-20T08:54:05.953Z,4.000000
2022-08-20T08:55:04.267Z,4.000000
2022-08-20T08:56:01.155Z,8.700000
2022-08-20T08:57:01.086Z,8.700000
2022-08-20T08:58:16.685Z,8.700000
2022-08-20T08:59:01.145Z,8.700000
2022-08-20T09:00:05.528Z,8.700000
2022-08-20T09:01:01.611Z,6.200000
2022-08-20T09:02:01.241Z,6.200000
2022-08-20T09:03:01.484Z,4.600000
2022-08-20T09:04:01.215Z,4.600000
2022-08-20T09:05:04.171Z,4.600000
2022-08-20T09:06:01.292Z,4.600000
2022-08-20T09:07:00.161Z,4.600000
2022-08-20T09:08:00.214Z,4.600000
2022-08-20T09:09:00.177Z,5.500000
2022-08-20T09:10:03.828Z,5.500000
2022-08-20T09:11:00.191Z,5.500000
2022-08-20T09:12:00.301Z,5.500000
2022-08-20T09:13:00.279Z,5.500000
2022-08-20T09:14:00.285Z,4.900000
2022-08-20T09:15:03.272Z,4.900000
2022-08-20T09:16:00.393Z,6.500000
2022-08-20T09:17:00.238Z,6.500000
2022-08-20T09:18:00.338Z,6.500000
2022-08-20T09:19:00.252Z,6.500000
2022-08-20T09:20:11.846Z,6.500000
2022-08-20T09:21:00.269Z,6.500000
2022-08-20T09:22:00.359Z,5.500000
2022-08-20T09:23:00.269Z,5.500000
2022-08-20T09:24:00.386Z,5.500000
2022-08-20T09:25:03.195Z,5.500000
2022-08-20T09:26:00.380Z,5.800000
2022-08-20T09:27:00.311Z,5.800000
2022-08-20T09:28:00.387Z,5.800000
2022-08-20T09:29:00.317Z,5.900000
2022-08-20T09:30:03.891Z,5.900000
2022-08-20T09:31:00.346Z,5.900000
2022-08-20T09:32:00.449Z,5.900000
2022-08-20T09:33:00.357Z,5.900000
2022-08-20T09:34:00.440Z,5.300000
2022-08-20T09:35:06.644Z,5.300000
2022-08-20T09:36:00.472Z,5.300000
2022-08-20T09:37:00.371Z,6.100000
2022-08-20T09:38:00.448Z,6.100000
2022-08-20T09:39:00.404Z,6.100000
2022-08-20T09:40:03.636Z,6.100000
2022-08-20T09:41:00.410Z,6.100000
2022-08-20T09:42:00.543Z,7.700000
2022-08-20T09:43:00.419Z,7.700000
2022-08-20T09:44:00.510Z,7.700000
2022-08-20T09:45:03.478Z,7.700000
2022-08-20T09:46:00.501Z,7.700000
2022-08-20T09:47:00.445Z,5.900000
2022-08-20T09:48:00.660Z,5.900000
2022-08-20T09:49:00.472Z,7.100000
2022-08-20T09:50:13.371Z,7.100000
2022-08-20T09:51:00.498Z,7.100000
2022-08-20T09:52:00.595Z,7.100000
2022-08-20T09:53:00.500Z,7.100000
2022-08-20T09:54:00.666Z,6.300000
2022-08-20T09:55:04.125Z,6.300000
2022-08-20T09:56:00.627Z,6.300000
2022-08-20T09:57:00.537Z,6.400000
2022-08-20T09:58:01.183Z,6.400000
2022-08-20T09:59:02.894Z,6.400000
2022-08-20T10:00:03.829Z,6.400000
2022-08-20T10:01:00.554Z,6.900000
2022-08-20T10:02:00.719Z,6.900000
2022-08-20T10:03:00.575Z,6.900000
2022-08-20T10:04:00.696Z,6.900000
2022-08-20T10:05:03.784Z,6.900000
2022-08-20T10:06:00.714Z,6.900000
2022-08-20T10:07:00.599Z,5.300000
2022-08-20T10:08:00.681Z,5.300000
2022-08-20T10:09:00.617Z,0.000000
2022-08-20T10:10:05.133Z,0.000000
2022-08-20T10:11:00.638Z,7.900000
2022-08-20T10:12:00.808Z,7.900000
2022-08-20T10:13:00.649Z,7.900000
2022-08-20T10:14:00.722Z,7.900000
2022-08-20T10:15:05.327Z,7.900000
2022-08-20T10:16:00.756Z,7.900000
2022-08-20T10:17:00.673Z,7.500000
2022-08-20T10:18:00.770Z,7.500000
2022-08-20T10:19:00.694Z,7.500000
2022-08-20T10:20:05.457Z,7.500000
2022-08-20T10:21:00.704Z,6.500000
2022-08-20T10:22:00.801Z,6.500000
2022-08-20T10:23:00.705Z,6.500000
2022-08-20T10:24:00.809Z,6.200000
2022-08-20T10:25:03.571Z,6.200000
2022-08-20T10:26:00.799Z,6.200000
2022-08-20T10:27:00.741Z,6.200000
2022-08-20T10:28:00.797Z,6.200000
2022-08-20T10:29:00.729Z,6.200000
2022-08-20T10:30:04.181Z,6.800000
2022-08-20T10:31:00.761Z,6.800000
2022-08-20T10:32:00.872Z,0.000000
2022-08-20T10:33:00.787Z,0.000000
2022-08-20T10:34:00.852Z,6.300000
2022-08-20T10:35:03.578Z,6.300000
2022-08-20T10:36:00.931Z,6.300000
2022-08-20T10:37:00.793Z,6.500000
2022-08-20T10:38:00.869Z,6.500000
2022-08-20T10:39:00.805Z,6.500000
2022-08-20T10:40:04.210Z,5.600000
2022-08-20T10:41:00.813Z,5.600000
2022-08-20T10:42:00.929Z,6.800000
2022-08-20T10:43:00.829Z,6.800000
2022-08-20T10:44:00.924Z,8.100000
2022-08-20T10:45:05.556Z,8.100000
2022-08-20T10:46:00.936Z,8.100000
2022-08-20T10:47:00.862Z,9.000000
2022-08-20T10:48:00.958Z,9.000000
2022-08-20T10:49:00.876Z,9.000000
2022-08-20T10:50:04.743Z,9.000000
2022-08-20T10:51:00.907Z,9.000000
2022-08-20T10:52:01.039Z,9.000000
2022-08-20T10:53:00.902Z,7.100000
2022-08-20T10:54:01.072Z,7.100000
2022-08-20T10:55:04.071Z,8.400000
2022-08-20T10:56:01.008Z,8.400000
2022-08-20T10:57:00.917Z,8.400000
2022-08-20T10:58:01.035Z,8.400000
2022-08-20T10:59:00.939Z,8.400000
2022-08-20T11:00:04.699Z,9.000000
2022-08-20T11:01:00.980Z,9.000000
2022-08-20T11:02:01.093Z,9.000000
2022-08-20T11:03:00.998Z,9.000000
2022-08-20T11:04:01.088Z,9.000000
2022-08-20T11:05:04.091Z,8.500000
2022-08-20T11:06:01.126Z,8.500000
2022-08-20T11:07:01.008Z,7.500000
2022-08-20T11:08:01.228Z,7.500000
2022-08-20T11:09:01.029Z,7.500000
2022-08-20T11:10:04.382Z,7.700000
2022-08-20T11:11:01.038Z,7.700000
2022-08-20T11:12:01.148Z,7.700000
2022-08-20T11:13:01.031Z,7.700000
2022-08-20T11:14:01.116Z,7.700000
2022-08-20T11:15:04.217Z,7.700000
2022-08-20T11:16:01.165Z,7.700000
2022-08-20T11:17:01.060Z,7.700000
2022-08-20T11:18:01.253Z,6.100000
2022-08-20T11:19:01.069Z,6.100000
2022-08-20T11:20:04.420Z,6.100000
2022-08-20T11:21:01.110Z,8.700000
2022-08-20T11:22:01.209Z,8.700000
2022-08-20T11:23:01.136Z,8.700000
2022-08-20T11:24:02.911Z,8.700000
2022-08-20T11:25:04.243Z,7.300000
2022-08-20T11:26:01.211Z,7.300000
2022-08-20T11:27:01.150Z,8.100000
2022-08-20T11:28:01.242Z,8.100000
2022-08-20T11:29:00.145Z,8.100000
2022-08-20T11:30:04.734Z,8.100000
2022-08-20T11:31:00.175Z,8.100000
2022-08-20T11:32:00.812Z,8.100000
2022-08-20T11:33:00.204Z,7.300000
2022-08-20T11:34:00.288Z,7.300000
2022-08-20T11:35:24.899Z,7.300000
2022-08-20T11:36:00.290Z,7.300000
2022-08-20T11:37:00.256Z,6.300000
2022-08-20T11:38:00.285Z,6.300000
2022-08-20T11:39:00.469Z,6.300000
2022-08-20T11:40:03.719Z,6.500000
2022-08-20T11:41:00.225Z,6.500000
2022-08-20T11:42:00.359Z,6.500000
2022-08-20T11:43:15.979Z,7.200000
2022-08-20T11:44:20.083Z,7.200000